createdAt,value
2023-05-22T00:02:22.899Z,85.76
2023-05-22T00:04:51.232Z,86.09
2023-05-22T00:07:18.620Z,86.51
2023-05-22T00:09:46.653Z,86.01
2023-05-22T00:12:13.933Z,86.50
2023-05-22T00:14:41.207Z,86.29
2023-05-22T00:17:10.419Z,86.68
2023-05-22T00:19:38.452Z,87.56
2023-05-22T00:22:06.273Z,88.10
2023-05-22T00:24:33.571Z,87.73
2023-05-22T00:27:00.835Z,88.01
2023-05-22T00:29:28.093Z,88.10
2023-05-22T00:31:55.558Z,87.92
2023-05-22T00:34:24.235Z,88.05
2023-05-22T00:36:51.433Z,87.58
2023-05-22T00:39:18.657Z,88.50
2023-05-22T00:41:46.150Z,88.26
2023-05-22T00:44:13.384Z,88.64
2023-05-22T00:46:40.979Z,88.95
2023-05-22T00:49:08.238Z,88.43
2023-05-22T00:51:36.929Z,88.81
2023-05-22T00:54:05.206Z,88.32
2023-05-22T00:56:32.925Z,88.59
2023-05-22T00:59:00.553Z,89.06
2023-05-22T01:01:33.672Z,88.98
2023-05-22T01:04:02.269Z,89.17
2023-05-22T01:06:32.438Z,88.78
2023-05-22T01:09:01.186Z,89.07
2023-05-22T01:11:36.631Z,88.70
2023-05-22T01:14:11.060Z,89.02
2023-05-22T01:16:46.888Z,88.24
2023-05-22T01:19:38.209Z,88.78
2023-05-22T01:22:21.867Z,88.83
2023-05-22T01:25:21.218Z,88.91
2023-05-22T01:28:12.113Z,89.01
2023-05-22T01:30:57.884Z,89.23
2023-05-22T01:33:26.695Z,89.07
2023-05-22T01:35:56.230Z,88.97
2023-05-22T01:38:23.984Z,88.69
2023-05-22T01:40:51.682Z,88.17
2023-05-22T01:43:19.343Z,89.24
2023-05-22T01:45:47.075Z,89.79
2023-05-22T01:48:16.311Z,89.44
2023-05-22T01:50:45.400Z,89.62
2023-05-22T01:53:19.561Z,88.83
2023-05-22T01:55:55.955Z,88.25
2023-05-22T01:58:30.932Z,88.68
2023-05-22T02:01:01.701Z,89.37
2023-05-22T02:03:32.135Z,88.85
2023-05-22T02:06:03.454Z,89.51
2023-05-22T02:08:31.412Z,89.57
2023-05-22T02:11:00.810Z,89.97
2023-05-22T02:13:28.965Z,90.37
2023-05-22T02:15:57.339Z,90.80
2023-05-22T02:18:29.642Z,89.86
2023-05-22T02:20:59.149Z,90.12
2023-05-22T02:23:27.275Z,88.44
2023-05-22T02:25:55.675Z,88.48
2023-05-22T02:28:23.020Z,89.30
2023-05-22T02:30:50.428Z,89.30
2023-05-22T02:33:20.506Z,90.02
2023-05-22T02:35:47.864Z,89.56
2023-05-22T02:38:16.585Z,89.94
2023-05-22T02:40:44.068Z,89.04
2023-05-22T02:43:11.330Z,88.68
2023-05-22T02:45:38.814Z,88.97
2023-05-22T02:48:06.616Z,88.76
2023-05-22T02:50:33.858Z,89.29
2023-05-22T02:53:01.100Z,89.96
2023-05-22T02:55:29.872Z,90.43
2023-05-22T02:57:57.201Z,90.70
2023-05-22T03:00:24.538Z,90.35
2023-05-22T03:02:51.878Z,90.42
2023-05-22T03:05:19.222Z,90.99
2023-05-22T03:07:48.741Z,90.45
2023-05-22T03:10:16.332Z,89.88
2023-05-22T03:12:45.018Z,90.31
2023-05-22T03:15:12.448Z,89.68
2023-05-22T03:17:39.816Z,90.21
2023-05-22T03:20:08.996Z,90.43
2023-05-22T03:22:36.320Z,91.07
2023-05-22T03:25:04.242Z,90.98
2023-05-22T03:27:31.532Z,90.49
2023-05-22T03:30:00.152Z,91.12
2023-05-22T03:32:27.679Z,91.06
2023-05-22T03:34:55.028Z,91.38
2023-05-22T03:37:22.263Z,91.75
2023-05-22T03:39:49.519Z,91.34
2023-05-22T03:42:16.910Z,90.92
2023-05-22T03:44:44.204Z,90.37
2023-05-22T03:47:12.958Z,90.05
2023-05-22T03:49:40.205Z,90.42
2023-05-22T03:52:10.332Z,91.06
2023-05-22T03:54:37.705Z,90.87
2023-05-22T03:57:05.951Z,90.96
2023-05-22T03:59:33.212Z,91.20
2023-05-22T04:02:01.424Z,90.94
2023-05-22T04:04:30.756Z,90.88
2023-05-22T04:06:58.390Z,90.94
2023-05-22T04:09:27.760Z,90.78
2023-05-22T04:11:56.174Z,90.94
2023-05-22T04:14:23.440Z,91.02
2023-05-22T04:16:51.042Z,89.95
2023-05-22T04:19:18.457Z,90.03
2023-05-22T04:21:47.799Z,90.05
2023-05-22T04:24:15.011Z,90.44
2023-05-22T04:26:42.730Z,90.68
2023-05-22T04:29:10.708Z,89.78
2023-05-22T04:31:38.013Z,89.02
2023-05-22T04:34:05.501Z,89.08
2023-05-22T04:36:32.708Z,88.66
2023-05-22T04:39:02.627Z,88.76
2023-05-22T04:41:29.959Z,88.32
2023-05-22T04:43:57.329Z,87.62
2023-05-22T04:46:24.726Z,87.26
2023-05-22T04:48:52.774Z,87.16
2023-05-22T04:51:20.124Z,87.02
2023-05-22T04:53:49.846Z,86.17
2023-05-22T04:56:31.968Z,86.06
2023-05-22T04:59:04.903Z,85.73
2023-05-22T05:01:33.482Z,86.03
2023-05-22T05:04:02.311Z,85.77
2023-05-22T05:06:29.696Z,85.01
2023-05-22T05:08:57.275Z,84.53
2023-05-22T05:11:26.185Z,84.52
2023-05-22T05:13:53.564Z,83.89
2023-05-22T05:16:20.887Z,84.44
2023-05-22T05:18:55.992Z,84.40
2023-05-22T05:21:23.565Z,83.65
2023-05-22T05:23:53.692Z,83.71
2023-05-22T05:26:21.996Z,83.55
2023-05-22T05:28:51.022Z,84.90
2023-05-22T05:31:19.829Z,85.00
2023-05-22T05:33:47.455Z,84.84
2023-05-22T05:36:14.893Z,85.44
2023-05-22T05:38:42.498Z,85.32
2023-05-22T05:41:10.009Z,84.87
2023-05-22T05:43:37.438Z,85.05
2023-05-22T05:46:06.376Z,85.34
2023-05-22T05:48:38.459Z,81.88
2023-05-22T05:51:06.196Z,83.39
2023-05-22T05:53:33.914Z,82.99
2023-05-22T05:56:01.317Z,81.77
2023-05-22T05:58:29.033Z,82.05
2023-05-22T06:00:56.423Z,82.02
2023-05-22T06:03:28.127Z,80.68
2023-05-22T06:05:55.710Z,81.12
2023-05-22T06:08:22.992Z,80.96
2023-05-22T06:10:50.295Z,80.21
2023-05-22T06:13:17.591Z,80.29
2023-05-22T06:15:44.802Z,80.13
2023-05-22T06:18:12.630Z,79.44
2023-05-22T06:20:41.582Z,80.23
2023-05-22T06:23:09.073Z,80.12
2023-05-22T06:25:36.401Z,79.80
2023-05-22T06:28:03.822Z,79.96
2023-05-22T06:30:43.511Z,79.66
2023-05-22T06:33:11.014Z,79.62
2023-05-22T06:35:38.241Z,79.40
2023-05-22T06:38:06.989Z,79.03
2023-05-22T06:40:34.212Z,79.67
2023-05-22T06:43:01.756Z,79.85
2023-05-22T06:45:29.363Z,80.30
2023-05-22T06:47:56.719Z,80.43
2023-05-22T06:50:24.090Z,76.97
2023-05-22T06:52:51.572Z,75.10
2023-05-22T06:55:20.587Z,76.47
2023-05-22T06:57:47.853Z,76.82
2023-05-22T07:00:16.584Z,76.77
2023-05-22T07:02:44.023Z,77.16
2023-05-22T07:05:13.545Z,75.52
2023-05-22T07:07:42.038Z,74.97
2023-05-22T07:10:10.118Z,72.79
2023-05-22T07:12:38.960Z,74.31
2023-05-22T07:15:10.669Z,73.39
2023-05-22T07:17:43.932Z,72.88
2023-05-22T07:20:12.276Z,72.85
2023-05-22T07:22:41.385Z,71.58
2023-05-22T07:25:09.410Z,72.00
2023-05-22T07:27:38.123Z,73.00
2023-05-22T07:30:06.807Z,73.46
2023-05-22T07:32:34.393Z,73.39
2023-05-22T07:35:01.882Z,70.12
2023-05-22T07:37:32.738Z,70.13
2023-05-22T07:40:00.108Z,71.15
2023-05-22T07:42:28.249Z,69.60
2023-05-22T07:44:57.067Z,72.01
2023-05-22T07:47:24.495Z,71.53
2023-05-22T07:49:51.899Z,71.12
2023-05-22T07:52:19.464Z,70.62
2023-05-22T07:54:46.977Z,70.31
2023-05-22T07:57:14.235Z,68.20
2023-05-22T07:59:44.082Z,69.11
2023-05-22T08:02:14.440Z,68.21
2023-05-22T08:04:41.913Z,69.93
2023-05-22T08:07:10.232Z,70.50
2023-05-22T08:09:38.384Z,72.01
2023-05-22T08:12:07.568Z,70.03
2023-05-22T08:14:35.320Z,69.27
2023-05-22T08:17:02.669Z,70.73
2023-05-22T08:19:32.201Z,69.35
2023-05-22T08:21:59.519Z,68.61
2023-05-22T08:24:28.702Z,68.94
2023-05-22T08:26:56.929Z,69.33
2023-05-22T08:29:37.022Z,67.82
2023-05-22T08:32:04.776Z,68.05
2023-05-22T08:34:33.977Z,68.30
2023-05-22T08:37:01.393Z,68.04
2023-05-22T08:39:38.400Z,69.57
2023-05-22T08:42:06.486Z,67.30
2023-05-22T08:44:36.709Z,66.92
2023-05-22T08:47:09.989Z,65.10
2023-05-22T08:49:40.128Z,65.46
2023-05-22T08:52:13.207Z,66.17
2023-05-22T08:54:45.443Z,67.08
2023-05-22T08:57:15.681Z,67.27
2023-05-22T08:59:45.920Z,64.17
2023-05-22T09:02:13.731Z,63.53
2023-05-22T09:04:43.091Z,65.76
2023-05-22T09:07:10.453Z,64.51
2023-05-22T09:09:38.260Z,64.16
2023-05-22T09:12:09.376Z,62.58
2023-05-22T09:14:40.646Z,61.48
2023-05-22T09:17:09.765Z,60.34
2023-05-22T09:19:37.868Z,61.54
2023-05-22T09:22:07.093Z,60.94
2023-05-22T09:24:39.094Z,60.77
2023-05-22T09:27:07.296Z,63.54
2023-05-22T09:29:50.208Z,61.73
2023-05-22T09:32:18.437Z,60.44
2023-05-22T09:34:47.093Z,60.83
2023-05-22T09:37:16.085Z,63.35
2023-05-22T09:39:44.625Z,63.22
2023-05-22T09:42:13.073Z,61.99
2023-05-22T09:44:42.707Z,60.35
2023-05-22T09:47:10.177Z,62.24
2023-05-22T09:49:42.160Z,62.35
2023-05-22T09:52:10.289Z,59.54
2023-05-22T09:54:45.564Z,57.98
2023-05-22T09:57:17.239Z,55.50
2023-05-22T09:59:50.364Z,56.69
2023-05-22T10:02:19.154Z,59.45
2023-05-22T10:04:49.363Z,54.26
2023-05-22T10:07:19.718Z,56.86
2023-05-22T10:09:58.704Z,53.64
2023-05-22T10:12:27.805Z,55.09
2023-05-22T10:14:55.821Z,55.95
2023-05-22T10:17:24.582Z,54.09
2023-05-22T10:19:53.920Z,54.23
2023-05-22T10:22:22.903Z,56.77
2023-05-22T10:24:52.992Z,53.96
2023-05-22T10:27:20.407Z,54.70
2023-05-22T10:29:52.768Z,51.77
2023-05-22T10:32:27.512Z,52.06
2023-05-22T10:35:01.968Z,50.82
2023-05-22T10:37:46.017Z,51.74
2023-05-22T10:40:22.297Z,49.23
2023-05-22T10:42:49.946Z,51.44
2023-05-22T10:45:17.354Z,48.32
2023-05-22T10:47:44.822Z,49.58
2023-05-22T10:50:23.556Z,52.22
2023-05-22T10:53:22.888Z,53.94
2023-05-22T10:55:51.684Z,49.32
2023-05-22T10:58:28.059Z,50.19
2023-05-22T11:01:15.914Z,50.56
2023-05-22T11:03:57.330Z,50.20
2023-05-22T11:06:35.931Z,51.99
2023-05-22T11:09:24.222Z,48.80
2023-05-22T11:12:22.712Z,52.31
2023-05-22T11:14:55.175Z,49.51
2023-05-22T11:17:24.390Z,49.29
2023-05-22T11:20:00.206Z,49.94
2023-05-22T11:22:37.100Z,46.68
2023-05-22T11:25:10.968Z,48.07
2023-05-22T11:27:44.228Z,48.25
2023-05-22T11:30:16.179Z,47.84
2023-05-22T11:32:45.501Z,48.63
2023-05-22T11:35:17.424Z,48.54
2023-05-22T11:37:45.298Z,48.88
2023-05-22T11:40:16.564Z,47.26
2023-05-22T11:42:44.560Z,46.89
2023-05-22T11:45:12.390Z,46.21
2023-05-22T11:47:40.265Z,43.22
2023-05-22T11:50:10.403Z,42.57
2023-05-22T11:52:39.490Z,44.03
2023-05-22T11:55:08.606Z,40.74
2023-05-22T11:57:37.780Z,41.00
2023-05-22T12:00:08.901Z,42.64
2023-05-22T12:02:37.135Z,42.05
2023-05-22T12:05:05.719Z,40.33
2023-05-22T12:07:48.259Z,38.93
2023-05-22T12:10:46.521Z,43.00
2023-05-22T12:13:15.225Z,40.24
2023-05-22T12:15:45.231Z,37.46
2023-05-22T12:18:12.608Z,40.19
2023-05-22T12:20:58.951Z,40.79
2023-05-22T12:23:29.903Z,37.93
2023-05-22T12:25:58.594Z,37.61
2023-05-22T12:28:32.006Z,37.79
2023-05-22T12:30:59.398Z,36.27
2023-05-22T12:33:27.995Z,36.89
2023-05-22T12:35:58.503Z,37.37
2023-05-22T12:38:27.587Z,39.43
2023-05-22T12:40:56.521Z,40.40
2023-05-22T12:43:25.365Z,38.06
2023-05-22T12:45:54.264Z,39.30
2023-05-22T12:48:21.846Z,47.20
2023-05-22T12:50:49.332Z,49.02
2023-05-22T12:53:16.631Z,50.87
2023-05-22T12:55:43.906Z,50.73
2023-05-22T12:58:11.174Z,50.89
2023-05-22T13:00:39.046Z,48.89
2023-05-22T13:03:08.256Z,48.81
2023-05-22T13:05:36.043Z,52.41
2023-05-22T13:08:03.562Z,54.64
2023-05-22T13:10:30.949Z,56.37
2023-05-22T13:12:58.255Z,57.72
2023-05-22T13:15:25.747Z,57.39
2023-05-22T13:17:53.126Z,59.22
2023-05-22T13:20:21.824Z,59.82
2023-05-22T13:22:49.091Z,60.13
2023-05-22T13:25:19.250Z,60.44
2023-05-22T13:27:46.696Z,60.43
2023-05-22T13:30:14.359Z,61.54
2023-05-22T13:32:41.653Z,62.37
2023-05-22T13:35:09.927Z,61.65
2023-05-22T13:37:39.529Z,60.17
2023-05-22T13:40:08.436Z,61.55
2023-05-22T13:42:36.439Z,61.09
2023-05-22T13:45:04.356Z,59.44
2023-05-22T13:47:31.842Z,60.49
2023-05-22T13:49:59.169Z,59.98
2023-05-22T13:52:27.439Z,60.66
2023-05-22T13:54:56.274Z,61.14
2023-05-22T13:57:23.658Z,60.23
2023-05-22T13:59:51.083Z,61.21
2023-05-22T14:02:20.728Z,61.64
2023-05-22T14:04:48.602Z,61.09
2023-05-22T14:07:19.636Z,60.59
2023-05-22T14:09:46.938Z,60.04
2023-05-22T14:12:15.744Z,59.84
2023-05-22T14:14:43.196Z,58.86
2023-05-22T14:17:10.666Z,60.52
2023-05-22T14:19:38.843Z,61.03
2023-05-22T14:22:06.273Z,60.08
2023-05-22T14:24:33.686Z,62.49
2023-05-22T14:27:01.006Z,63.84
2023-05-22T14:29:29.720Z,62.99
2023-05-22T14:32:04.315Z,61.53
2023-05-22T14:34:31.886Z,63.63
2023-05-22T14:36:59.100Z,63.47
2023-05-22T14:39:28.671Z,61.25
2023-05-22T14:41:56.261Z,64.07
2023-05-22T14:44:23.582Z,62.57
2023-05-22T14:46:53.674Z,61.68
2023-05-22T14:49:20.991Z,59.16
2023-05-22T14:51:48.435Z,59.15
2023-05-22T14:54:18.089Z,59.53
2023-05-22T14:56:45.572Z,56.91
2023-05-22T14:59:12.895Z,56.85
2023-05-22T15:01:40.329Z,56.21
2023-05-22T15:04:09.506Z,55.89
2023-05-22T15:06:36.957Z,55.18
2023-05-22T15:09:04.373Z,55.85
2023-05-22T15:11:31.665Z,55.52
2023-05-22T15:13:58.892Z,55.09
2023-05-22T15:16:27.826Z,54.67
2023-05-22T15:18:55.444Z,55.11
2023-05-22T15:21:24.592Z,55.14
2023-05-22T15:23:52.109Z,55.27
2023-05-22T15:26:19.409Z,55.85
2023-05-22T15:28:46.595Z,55.16
2023-05-22T15:31:14.233Z,54.02
2023-05-22T15:33:41.619Z,54.71
2023-05-22T15:36:08.952Z,55.02
2023-05-22T15:38:37.596Z,54.07
2023-05-22T15:41:04.909Z,55.33
2023-05-22T15:43:32.251Z,52.42
2023-05-22T15:46:00.057Z,53.75
2023-05-22T15:48:27.675Z,52.81
2023-05-22T15:50:54.863Z,51.89
2023-05-22T15:53:22.892Z,54.01
2023-05-22T15:55:51.831Z,53.50
2023-05-22T15:58:19.192Z,54.48
2023-05-22T16:00:46.454Z,54.01
2023-05-22T16:03:15.146Z,53.79
2023-05-22T16:05:42.987Z,54.54
2023-05-22T16:08:10.593Z,53.49
2023-05-22T16:10:41.476Z,54.81
2023-05-22T16:13:13.321Z,55.11
2023-05-22T16:15:43.826Z,54.95
2023-05-22T16:18:12.959Z,54.77
2023-05-22T16:20:40.553Z,54.04
2023-05-22T16:23:07.815Z,53.17
2023-05-22T16:25:35.092Z,53.92
2023-05-22T16:28:02.322Z,53.73
2023-05-22T16:30:31.300Z,53.97
2023-05-22T16:32:58.681Z,54.93
2023-05-22T16:35:26.039Z,55.14
2023-05-22T16:37:53.320Z,54.82
2023-05-22T16:40:20.619Z,52.08
2023-05-22T16:42:47.865Z,52.61
2023-05-22T16:45:15.175Z,53.27
2023-05-22T16:47:43.834Z,53.89
2023-05-22T16:50:11.383Z,53.93
2023-05-22T16:52:38.700Z,54.23
2023-05-22T16:55:07.096Z,55.28
2023-05-22T16:57:34.370Z,54.65
2023-05-22T17:00:01.825Z,56.20
2023-05-22T17:02:29.362Z,56.12
2023-05-22T17:04:58.019Z,57.20
2023-05-22T17:07:25.523Z,57.78
2023-05-22T17:09:52.703Z,56.85
2023-05-22T17:12:19.996Z,56.49
2023-05-22T17:14:47.333Z,56.23
2023-05-22T17:17:14.722Z,56.41
2023-05-22T17:19:42.107Z,57.46
2023-05-22T17:22:10.942Z,57.95
2023-05-22T17:24:38.178Z,58.38
2023-05-22T17:27:06.823Z,58.89
2023-05-22T17:29:34.304Z,59.13
2023-05-22T17:32:01.775Z,59.72
2023-05-22T17:34:28.974Z,60.54
2023-05-22T17:36:56.306Z,61.11
2023-05-22T17:39:24.986Z,61.61
2023-05-22T17:41:52.226Z,62.31
2023-05-22T17:44:19.532Z,62.90
2023-05-22T17:46:46.765Z,63.97
2023-05-22T17:49:13.998Z,64.69
2023-05-22T17:51:41.319Z,65.85
2023-05-22T17:54:09.482Z,66.41
2023-05-22T17:56:38.178Z,66.02
2023-05-22T17:59:07.331Z,67.32
2023-05-22T18:01:34.673Z,68.07
2023-05-22T18:04:02.761Z,68.17
2023-05-22T18:06:30.309Z,68.50
2023-05-22T18:08:57.582Z,68.77
2023-05-22T18:11:26.165Z,68.81
2023-05-22T18:13:54.939Z,69.07
2023-05-22T18:16:22.208Z,69.50
2023-05-22T18:18:49.744Z,70.35
2023-05-22T18:21:17.117Z,70.94
2023-05-22T18:23:44.409Z,70.95
2023-05-22T18:26:11.677Z,71.00
2023-05-22T18:28:38.941Z,71.83
2023-05-22T18:31:08.214Z,72.37
2023-05-22T18:33:36.089Z,73.82
2023-05-22T18:36:04.491Z,75.33
2023-05-22T18:38:31.845Z,75.42
2023-05-22T18:40:59.035Z,74.96
2023-05-22T18:43:28.384Z,75.21
2023-05-22T18:45:56.968Z,75.84
2023-05-22T18:48:27.248Z,76.05
2023-05-22T18:50:57.467Z,76.28
2023-05-22T18:53:25.999Z,76.36
2023-05-22T18:55:54.121Z,76.36
2023-05-22T18:58:21.748Z,77.14
2023-05-22T19:00:49.312Z,77.81
2023-05-22T19:03:16.769Z,78.19
2023-05-22T19:05:45.490Z,78.47
2023-05-22T19:08:12.792Z,78.00
2023-05-22T19:10:40.365Z,78.57
2023-05-22T19:13:07.889Z,79.12
2023-05-22T19:15:35.261Z,79.53
2023-05-22T19:18:02.606Z,79.72
2023-05-22T19:20:30.045Z,79.69
2023-05-22T19:22:58.666Z,79.96
2023-05-22T19:25:26.281Z,80.24
2023-05-22T19:27:53.560Z,80.61
2023-05-22T19:30:22.048Z,80.67
2023-05-22T19:32:50.003Z,81.39
2023-05-22T19:35:17.737Z,81.47
2023-05-22T19:37:44.988Z,81.66
2023-05-22T19:40:13.713Z,82.05
2023-05-22T19:42:42.337Z,82.19
2023-05-22T19:45:10.083Z,82.06
2023-05-22T19:47:37.419Z,82.77
2023-05-22T19:50:05.494Z,82.25
2023-05-22T19:52:32.671Z,82.57
2023-05-22T19:54:59.894Z,83.13
2023-05-22T19:57:29.513Z,83.41
2023-05-22T19:59:56.722Z,83.63
2023-05-22T20:02:24.004Z,83.64
2023-05-22T20:04:52.082Z,82.56
2023-05-22T20:07:19.335Z,82.47
2023-05-22T20:09:46.678Z,82.59
2023-05-22T20:12:14.860Z,82.44
2023-05-22T20:14:43.566Z,82.83
2023-05-22T20:17:10.795Z,82.89
2023-05-22T20:19:38.171Z,83.02
2023-05-22T20:22:05.716Z,83.78
2023-05-22T20:24:32.908Z,84.58
2023-05-22T20:27:01.188Z,84.57
2023-05-22T20:29:28.561Z,84.76
2023-05-22T20:31:58.065Z,85.03
2023-05-22T20:34:26.702Z,84.73
2023-05-22T20:36:54.330Z,85.01
2023-05-22T20:39:22.440Z,85.47
2023-05-22T20:41:50.092Z,85.56
2023-05-22T20:44:18.405Z,85.39
2023-05-22T20:46:45.581Z,86.14
2023-05-22T20:49:14.400Z,86.10
2023-05-22T20:51:41.594Z,86.06
2023-05-22T20:54:08.755Z,86.29
2023-05-22T20:56:35.960Z,85.25
2023-05-22T20:59:03.259Z,84.51
2023-05-22T21:01:30.833Z,84.75
2023-05-22T21:03:58.177Z,84.49
2023-05-22T21:06:26.952Z,84.24
2023-05-22T21:08:59.730Z,85.40
2023-05-22T21:11:26.980Z,85.96
2023-05-22T21:13:54.455Z,86.33
2023-05-22T21:16:21.731Z,86.27
2023-05-22T21:18:49.113Z,86.44
2023-05-22T21:21:20.273Z,86.42
2023-05-22T21:23:49.898Z,86.39
2023-05-22T21:26:17.364Z,86.77
2023-05-22T21:28:44.761Z,86.99
2023-05-22T21:31:12.060Z,86.29
2023-05-22T21:33:39.310Z,86.52
2023-05-22T21:36:07.021Z,86.57
2023-05-22T21:38:34.280Z,85.42
2023-05-22T21:41:03.254Z,85.36
2023-05-22T21:43:30.702Z,86.65
2023-05-22T21:45:57.944Z,86.79
2023-05-22T21:48:25.568Z,86.23
2023-05-22T21:50:52.940Z,86.82
2023-05-22T21:53:21.119Z,86.85
2023-05-22T21:55:48.643Z,87.14
2023-05-22T21:58:17.291Z,86.83
2023-05-22T22:00:44.561Z,86.40
2023-05-22T22:03:51.840Z,86.14
2023-05-22T22:06:19.083Z,85.75
2023-05-22T22:08:46.626Z,86.69
2023-05-22T22:11:13.799Z,87.09
2023-05-22T22:13:42.748Z,87.27
2023-05-22T22:16:10.135Z,87.72
2023-05-22T22:18:37.506Z,87.65
2023-05-22T22:21:04.817Z,88.04
2023-05-22T22:23:32.018Z,87.19
2023-05-22T22:25:59.262Z,87.49
2023-05-22T22:28:26.568Z,87.58
2023-05-22T22:30:55.535Z,87.77
2023-05-22T22:33:23.155Z,87.38
2023-05-22T22:35:51.484Z,87.28
2023-05-22T22:38:18.775Z,87.00
2023-05-22T22:40:45.957Z,87.19
2023-05-22T22:43:13.216Z,87.72
2023-05-22T22:45:41.053Z,88.13
2023-05-22T22:48:09.980Z,87.95
2023-05-22T22:50:37.441Z,88.32
2023-05-22T22:53:05.372Z,88.51
2023-05-22T22:55:32.733Z,88.59
2023-05-22T22:58:02.073Z,88.22
2023-05-22T23:00:29.316Z,88.40
2023-05-22T23:02:56.627Z,88.32
2023-05-22T23:05:25.481Z,88.44
2023-05-22T23:07:52.900Z,87.33
2023-05-22T23:10:20.283Z,88.06
2023-05-22T23:12:48.446Z,88.61
2023-05-22T23:15:15.978Z,88.69
2023-05-22T23:17:43.233Z,87.26
2023-05-22T23:20:11.681Z,87.54
2023-05-22T23:22:40.339Z,87.93
2023-05-22T23:25:08.173Z,87.98
2023-05-22T23:27:36.720Z,87.68
2023-05-22T23:30:04.636Z,88.23
2023-05-22T23:32:32.204Z,88.49
2023-05-22T23:34:59.471Z,88.63
2023-05-22T23:37:26.715Z,88.44
2023-05-22T23:39:55.432Z,88.95
2023-05-22T23:42:22.680Z,89.23
2023-05-22T23:44:50.048Z,87.79
2023-05-22T23:47:20.636Z,88.20
2023-05-22T23:49:47.878Z,88.76
2023-05-22T23:52:15.268Z,89.34
2023-05-22T23:54:42.428Z,88.69
2023-05-22T23:57:11.109Z,87.98
2023-05-22T23:59:39.163Z,88.94
